createdAt,value
2022-10-09T00:07:31.959Z,97387.66
2022-10-09T00:17:35.606Z,97391.39
2022-10-09T00:27:39.607Z,97392.54
2022-10-09T00:37:43.936Z,97394.34
2022-10-09T00:47:58.084Z,97404.73
2022-10-09T00:58:02.935Z,97401.02
2022-10-09T01:08:15.438Z,97396.80
2022-10-09T01:18:40.372Z,97405.89
2022-10-09T01:28:48.571Z,97406.64
2022-10-09T01:38:53.431Z,97406.52
2022-10-09T01:49:26.689Z,97416.13
2022-10-09T01:59:36.690Z,97445.65
2022-10-09T02:09:41.480Z,97455.23
2022-10-09T02:19:50.922Z,97480.05
2022-10-09T02:29:55.457Z,97505.59
2022-10-09T02:39:59.125Z,97525.68
2022-10-09T02:50:02.583Z,97514.37
2022-10-09T03:00:07.191Z,97527.43
2022-10-09T03:10:10.836Z,97538.13
2022-10-09T03:20:14.412Z,97537.95
2022-10-09T03:30:18.066Z,97540.48
2022-10-09T03:40:21.635Z,97560.47
2022-10-09T03:50:25.715Z,97568.78
2022-10-09T04:00:29.884Z,97566.71
2022-10-09T04:10:33.471Z,97571.49
2022-10-09T04:20:37.333Z,97586.75
2022-10-09T04:30:40.991Z,97589.45
2022-10-09T04:40:45.069Z,97595.78
2022-10-09T04:50:49.007Z,97601.26
2022-10-09T05:00:52.819Z,97618.34
2022-10-09T05:11:04.454Z,97623.95
2022-10-09T05:21:08.329Z,97643.14
2022-10-09T05:31:19.211Z,97650.55
2022-10-09T05:41:23.123Z,97663.39
2022-10-09T05:51:30.032Z,97676.02
2022-10-09T06:01:39.559Z,97690.99
2022-10-09T06:11:45.893Z,97708.20
2022-10-09T06:21:50.987Z,97718.75
2022-10-09T06:31:55.173Z,97737.37
2022-10-09T06:41:59.553Z,97751.11
2022-10-09T06:52:08.223Z,97765.52
2022-10-09T07:02:11.935Z,97772.33
2022-10-09T07:12:15.970Z,97780.95
2022-10-09T07:22:21.597Z,97784.13
2022-10-09T07:32:28.620Z,97799.80
2022-10-09T07:42:32.387Z,97812.66
2022-10-09T07:52:35.856Z,97815.98
2022-10-09T08:02:39.651Z,97821.04
2022-10-09T08:12:43.334Z,97826.06
2022-10-09T08:22:47.432Z,97835.54
2022-10-09T08:32:51.514Z,97844.95
2022-10-09T08:43:04.978Z,97840.67
2022-10-09T08:53:49.024Z,97844.02
2022-10-09T09:04:11.449Z,97861.80
2022-10-09T09:14:33.791Z,97857.51
2022-10-09T09:25:13.988Z,97843.84
2022-10-09T09:35:41.748Z,97848.80
2022-10-09T09:45:46.394Z,97853.83
2022-10-09T09:55:54.809Z,97846.80
2022-10-09T10:06:00.172Z,97843.79
2022-10-09T10:16:07.372Z,97852.10
2022-10-09T10:26:25.318Z,97844.16
2022-10-09T10:36:29.096Z,97844.73
2022-10-09T10:46:42.977Z,97842.02
2022-10-09T10:57:28.907Z,97831.81
2022-10-09T11:07:50.794Z,97839.79
2022-10-09T11:18:03.560Z,97838.20
2022-10-09T11:28:16.344Z,97819.23
2022-10-09T11:38:26.963Z,97816.57
2022-10-09T11:48:33.088Z,97811.49
2022-10-09T11:58:37.311Z,97817.92
2022-10-09T12:09:03.712Z,97806.63
2022-10-09T12:19:22.145Z,97812.36
2022-10-09T12:29:43.986Z,97805.09
2022-10-09T12:39:49.757Z,97783.79
2022-10-09T12:50:18.714Z,97787.59
2022-10-09T13:00:22.861Z,97792.46
2022-10-09T13:10:26.840Z,97793.59
2022-10-09T13:20:33.488Z,97796.06
2022-10-09T13:30:37.821Z,97789.14
2022-10-09T13:40:43.430Z,97786.55
2022-10-09T13:50:47.430Z,97781.35
2022-10-09T14:00:51.503Z,97773.17
2022-10-09T14:11:00.917Z,97767.42
2022-10-09T14:21:15.409Z,97773.85
2022-10-09T14:31:20.531Z,97779.39
2022-10-09T14:41:25.535Z,97771.38
2022-10-09T14:51:32.529Z,97773.34
2022-10-09T15:01:38.788Z,97771.07
2022-10-09T15:11:42.443Z,97769.39
2022-10-09T15:21:46.533Z,97766.27
2022-10-09T15:31:54.179Z,97759.55
2022-10-09T15:41:58.460Z,97756.12
2022-10-09T15:52:02.530Z,97757.42
2022-10-09T16:02:06.504Z,97774.46
2022-10-09T16:12:10.588Z,97786.09
2022-10-09T16:22:14.776Z,97789.00
2022-10-09T16:32:18.752Z,97793.48
2022-10-09T16:42:22.908Z,97800.81
2022-10-09T16:52:26.892Z,97805.95
2022-10-09T17:02:30.973Z,97817.80
2022-10-09T17:12:34.853Z,97819.35
2022-10-09T17:22:39.414Z,97822.27
2022-10-09T17:32:43.615Z,97832.64
2022-10-09T17:42:49.042Z,97835.00
2022-10-09T17:52:53.894Z,97841.42
2022-10-09T18:02:59.274Z,97838.20
2022-10-09T18:13:06.081Z,97844.89
2022-10-09T18:23:11.089Z,97849.50
2022-10-09T18:33:15.613Z,97856.15
2022-10-09T18:43:20.312Z,97857.20
2022-10-09T18:53:26.937Z,97873.22
2022-10-09T19:03:34.191Z,97878.04
2022-10-09T19:13:38.355Z,97879.69
2022-10-09T19:23:43.795Z,97874.60
2022-10-09T19:33:48.038Z,97883.15
2022-10-09T19:43:52.739Z,97889.21
2022-10-09T19:53:57.189Z,97894.18
2022-10-09T20:04:08.073Z,97896.79
2022-10-09T20:14:12.524Z,97898.22
2022-10-09T20:24:16.605Z,97902.48
2022-10-09T20:34:20.485Z,97904.79
2022-10-09T20:44:24.250Z,97900.98
2022-10-09T20:54:28.411Z,97904.13
2022-10-09T21:04:32.508Z,97902.30
2022-10-09T21:14:37.072Z,97904.02
2022-10-09T21:24:40.854Z,97898.40
2022-10-09T21:34:44.933Z,97893.81
2022-10-09T21:44:48.589Z,97893.89
2022-10-09T21:54:52.374Z,97892.38
2022-10-09T22:04:57.671Z,97885.30
2022-10-09T22:15:02.151Z,97882.22
2022-10-09T22:25:06.688Z,97873.97
2022-10-09T22:35:10.407Z,97877.55
2022-10-09T22:45:14.177Z,97870.67
2022-10-09T22:55:18.047Z,97869.45
2022-10-09T23:05:24.767Z,97876.45
2022-10-09T23:15:28.337Z,97870.92
2022-10-09T23:25:32.150Z,97869.79
2022-10-09T23:35:41.117Z,97875.79
2022-10-09T23:45:45.187Z,97868.10
2022-10-09T23:55:49.761Z,97862.08
